createdAt,value
2018-07-24T00:00:39.986Z,0
2018-07-24T00:01:49.797Z,0
2018-07-24T00:02:59.346Z,0
2018-07-24T00:04:09.167Z,0
2018-07-24T00:05:19.243Z,0
2018-07-24T00:06:29.348Z,0
2018-07-24T00:07:39.151Z,0
2018-07-24T00:08:49.230Z,0
2018-07-24T00:09:59.313Z,0
2018-07-24T00:11:09.806Z,0
2018-07-24T00:12:19.912Z,0
2018-07-24T00:13:29.996Z,0
2018-07-24T00:14:40.066Z,0
2018-07-24T00:15:49.874Z,0
2018-07-24T00:16:59.452Z,0
2018-07-24T00:18:09.312Z,0
2018-07-24T00:19:19.390Z,0
2018-07-24T00:20:29.201Z,0
2018-07-24T00:21:38.994Z,0
2018-07-24T00:22:49.113Z,0
2018-07-24T00:23:59.223Z,0
2018-07-24T00:25:09.286Z,0
2018-07-24T00:26:18.821Z,0
2018-07-24T00:27:28.904Z,0
2018-07-24T00:28:38.703Z,0
2018-07-24T00:29:48.549Z,0
2018-07-24T00:30:58.634Z,0
2018-07-24T00:32:08.577Z,0
2018-07-24T00:33:18.662Z,0
2018-07-24T00:34:28.748Z,0
2018-07-24T00:35:38.601Z,0
2018-07-24T00:36:48.402Z,0
2018-07-24T00:37:58.464Z,0
2018-07-24T00:39:08.260Z,0
2018-07-24T00:40:18.051Z,0
2018-07-24T00:41:28.177Z,0
2018-07-24T00:42:38.240Z,0
2018-07-24T00:43:48.315Z,0
2018-07-24T00:44:58.367Z,0
2018-07-24T00:46:08.421Z,0
2018-07-24T00:47:18.532Z,0
2018-07-24T00:48:28.065Z,0
2018-07-24T00:49:37.894Z,0
2018-07-24T00:50:47.151Z,0
2018-07-24T00:51:57.270Z,0
2018-07-24T00:53:07.404Z,0
2018-07-24T00:54:17.475Z,0
2018-07-24T00:55:26.667Z,0
2018-07-24T00:56:36.723Z,0
2018-07-24T00:57:46.518Z,0
2018-07-24T00:58:56.398Z,0
2018-07-24T01:00:06.472Z,0
2018-07-24T01:01:16.016Z,0
2018-07-24T01:02:26.078Z,0
2018-07-24T01:03:35.978Z,0
2018-07-24T01:04:45.848Z,0
2018-07-24T01:05:55.912Z,0
2018-07-24T01:07:05.710Z,0
2018-07-24T01:08:15.791Z,0
2018-07-24T01:09:25.615Z,0
2018-07-24T01:10:35.728Z,0
2018-07-24T01:11:45.268Z,0
2018-07-24T01:12:55.060Z,0
2018-07-24T01:14:05.144Z,0
2018-07-24T01:15:14.680Z,0
2018-07-24T01:16:24.861Z,0
2018-07-24T01:17:34.937Z,0
2018-07-24T01:18:45.018Z,0
2018-07-24T01:19:55.079Z,0
2018-07-24T01:21:04.902Z,0
2018-07-24T01:22:15.037Z,0
2018-07-24T01:23:24.837Z,0
2018-07-24T01:24:34.657Z,0
2018-07-24T01:25:44.730Z,0
2018-07-24T01:26:54.807Z,0
2018-07-24T01:28:04.382Z,0
2018-07-24T01:29:14.436Z,0
2018-07-24T01:30:24.526Z,0
2018-07-24T01:31:34.318Z,0
2018-07-24T01:32:43.843Z,0
2018-07-24T01:33:53.706Z,0
2018-07-24T01:35:03.513Z,0
2018-07-24T01:36:13.578Z,0
2018-07-24T01:37:23.388Z,0
2018-07-24T01:38:33.201Z,0
2018-07-24T01:39:43.065Z,0
2018-07-24T01:40:53.132Z,0
2018-07-24T01:42:02.932Z,0
2018-07-24T01:43:12.731Z,0
2018-07-24T01:44:22.534Z,0
2018-07-24T01:45:32.385Z,0
2018-07-24T01:46:42.449Z,0
2018-07-24T01:47:52.309Z,0
2018-07-24T01:49:02.120Z,0
2018-07-24T01:50:11.387Z,0
2018-07-24T01:51:21.249Z,0
2018-07-24T01:52:31.311Z,0
2018-07-24T01:53:41.382Z,0
2018-07-24T01:54:51.181Z,0
2018-07-24T01:56:01.252Z,0
2018-07-24T01:57:10.834Z,0
2018-07-24T01:58:20.364Z,0
2018-07-24T01:59:30.161Z,0
2018-07-24T02:00:40.231Z,0
2018-07-24T02:01:50.301Z,0
2018-07-24T02:03:00.150Z,0
2018-07-24T02:04:09.967Z,0
2018-07-24T02:05:20.085Z,0
2018-07-24T02:06:30.139Z,0
2018-07-24T02:07:39.677Z,0
2018-07-24T02:08:49.543Z,0
2018-07-24T02:09:59.612Z,0
2018-07-24T02:11:09.678Z,0
2018-07-24T02:12:19.485Z,0
2018-07-24T02:13:29.000Z,0
2018-07-24T02:14:39.122Z,0
2018-07-24T02:15:48.689Z,0
2018-07-24T02:16:58.486Z,0
2018-07-24T02:18:08.560Z,0
2018-07-24T02:19:18.359Z,5
2018-07-24T02:20:28.501Z,5
2018-07-24T02:21:38.304Z,5
2018-07-24T02:22:48.369Z,5
2018-07-24T02:23:58.435Z,5
2018-07-24T02:25:08.506Z,5
2018-07-24T02:26:18.359Z,5
2018-07-24T02:27:27.886Z,5
2018-07-24T02:28:37.958Z,5
2018-07-24T02:29:47.765Z,5
2018-07-24T02:30:57.824Z,10
2018-07-24T02:32:07.948Z,10
2018-07-24T02:33:17.468Z,10
2018-07-24T02:34:27.271Z,10
2018-07-24T02:35:37.090Z,10
2018-07-24T02:36:46.629Z,10
2018-07-24T02:37:56.758Z,10
2018-07-24T02:39:06.570Z,10
2018-07-24T02:40:16.654Z,15
2018-07-24T02:41:26.741Z,15
2018-07-24T02:42:36.824Z,15
2018-07-24T02:43:46.691Z,20
2018-07-24T02:44:56.794Z,20
2018-07-24T02:46:06.887Z,20
2018-07-24T02:47:16.692Z,20
2018-07-24T02:48:26.232Z,20
2018-07-24T02:49:36.116Z,25
2018-07-24T02:50:45.918Z,25
2018-07-24T02:51:55.450Z,25
2018-07-24T02:53:05.548Z,25
2018-07-24T02:54:15.626Z,30
2018-07-24T02:55:25.219Z,30
2018-07-24T02:56:35.314Z,30
2018-07-24T02:57:45.398Z,30
2018-07-24T02:58:55.493Z,35
2018-07-24T03:00:05.579Z,35
2018-07-24T03:03:48.841Z,40
2018-07-24T03:04:58.654Z,40
2018-07-24T03:06:08.467Z,40
2018-07-24T03:07:18.291Z,40
2018-07-24T03:08:28.096Z,40
2018-07-24T03:09:38.030Z,40
2018-07-24T03:10:48.113Z,40
2018-07-24T03:11:58.222Z,40
2018-07-24T03:13:08.054Z,45
2018-07-24T03:14:18.146Z,45
2018-07-24T03:15:28.259Z,45
2018-07-24T03:16:38.350Z,50
2018-07-24T03:17:48.413Z,50
2018-07-24T03:18:58.539Z,50
2018-07-24T03:20:08.660Z,50
2018-07-24T03:21:18.797Z,55
2018-07-24T03:22:28.329Z,55
2018-07-24T03:23:38.405Z,55
2018-07-24T03:24:48.486Z,60
2018-07-24T03:25:58.291Z,60
2018-07-24T03:27:08.151Z,60
2018-07-24T03:28:18.219Z,60
2018-07-24T03:29:28.035Z,65
2018-07-24T03:30:37.843Z,65
2018-07-24T03:31:47.378Z,65
2018-07-24T03:32:57.506Z,65
2018-07-24T03:34:07.577Z,70
2018-07-24T03:35:17.382Z,70
2018-07-24T03:36:26.930Z,70
2018-07-24T03:37:37.004Z,75
2018-07-24T03:38:47.144Z,75
2018-07-24T03:39:57.365Z,75
2018-07-24T03:41:07.153Z,75
2018-07-24T03:42:17.222Z,80
2018-07-24T03:43:27.318Z,80
2018-07-24T03:44:37.164Z,80
2018-07-24T03:45:46.959Z,80
2018-07-24T03:46:56.764Z,80
2018-07-24T03:48:06.826Z,80
2018-07-24T03:49:16.973Z,80
2018-07-24T03:50:26.809Z,80
2018-07-24T03:51:36.623Z,85
2018-07-24T03:52:46.433Z,85
2018-07-24T03:53:56.227Z,85
2018-07-24T03:55:06.023Z,85
2018-07-24T03:56:15.872Z,90
2018-07-24T03:57:25.945Z,90
2018-07-24T03:58:35.466Z,90
2018-07-24T03:59:45.518Z,90
2018-07-24T04:00:55.591Z,95
2018-07-24T04:02:05.710Z,95
2018-07-24T04:03:15.251Z,95
2018-07-24T04:04:25.044Z,95
2018-07-24T04:05:34.849Z,100
2018-07-24T04:06:44.946Z,100
2018-07-24T04:07:55.069Z,100
2018-07-24T04:09:04.879Z,100
2018-07-24T04:10:14.682Z,100
2018-07-24T04:11:24.807Z,105
2018-07-24T04:12:34.895Z,105
2018-07-24T04:13:44.756Z,105
2018-07-24T04:14:54.565Z,105
2018-07-24T04:16:04.361Z,105
2018-07-24T04:17:14.163Z,110
2018-07-24T04:18:24.230Z,110
2018-07-24T04:19:34.083Z,110
2018-07-24T04:20:43.884Z,110
2018-07-24T04:21:53.413Z,110
2018-07-24T04:23:03.225Z,115
2018-07-24T04:24:13.303Z,115
2018-07-24T04:25:23.430Z,115
2018-07-24T04:26:33.517Z,115
2018-07-24T04:27:43.046Z,115
2018-07-24T04:28:53.130Z,115
2018-07-24T04:30:02.680Z,115
2018-07-24T04:31:12.510Z,115
2018-07-24T04:32:22.650Z,115
2018-07-24T04:33:31.921Z,115
2018-07-24T04:34:41.745Z,120
2018-07-24T04:35:51.830Z,120
2018-07-24T04:37:01.416Z,120
2018-07-24T04:38:10.701Z,120
2018-07-24T04:39:20.487Z,120
2018-07-24T04:40:30.524Z,125
2018-07-24T04:41:40.320Z,125
2018-07-24T04:42:50.178Z,125
2018-07-24T04:44:00.002Z,125
2018-07-24T04:45:10.084Z,125
2018-07-24T04:46:20.162Z,125
2018-07-24T04:47:29.971Z,130
2018-07-24T04:48:40.295Z,130
2018-07-24T04:49:50.357Z,130
2018-07-24T04:51:00.461Z,130
2018-07-24T04:52:10.529Z,130
2018-07-24T04:53:20.598Z,135
2018-07-24T04:54:30.458Z,135
2018-07-24T04:55:40.538Z,135
2018-07-24T04:56:50.609Z,135
2018-07-24T04:58:00.678Z,135
2018-07-24T04:59:10.749Z,135
2018-07-24T05:00:20.856Z,135
2018-07-24T05:01:30.939Z,140
2018-07-24T05:02:40.972Z,140
2018-07-24T05:03:50.778Z,140
2018-07-24T05:05:00.590Z,140
2018-07-24T05:06:10.700Z,140
2018-07-24T05:07:20.229Z,140
2018-07-24T05:08:30.029Z,140
2018-07-24T05:09:40.469Z,145
2018-07-24T05:10:50.621Z,145
2018-07-24T05:12:00.487Z,145
2018-07-24T05:13:10.553Z,145
2018-07-24T05:14:20.614Z,145
2018-07-24T05:15:30.435Z,145
2018-07-24T05:16:40.326Z,145
2018-07-24T05:17:50.437Z,145
2018-07-24T05:19:00.503Z,150
2018-07-24T05:20:10.293Z,150
2018-07-24T05:21:19.831Z,150
2018-07-24T05:22:29.897Z,150
2018-07-24T05:23:40.379Z,150
2018-07-24T05:24:49.929Z,150
2018-07-24T05:26:00.579Z,155
2018-07-24T05:27:10.382Z,155
2018-07-24T05:28:20.462Z,155
2018-07-24T05:29:30.321Z,155
2018-07-24T05:30:40.145Z,155
2018-07-24T05:31:50.230Z,155
2018-07-24T05:33:00.029Z,155
2018-07-24T05:34:09.850Z,155
2018-07-24T05:35:19.970Z,155
2018-07-24T05:36:29.783Z,155
2018-07-24T05:37:39.584Z,155
2018-07-24T05:38:49.898Z,155
2018-07-24T05:39:59.169Z,160
2018-07-24T05:41:08.479Z,160
2018-07-24T05:42:18.561Z,160
2018-07-24T05:43:27.815Z,165
2018-07-24T05:44:37.628Z,165
2018-07-24T05:45:47.683Z,170
2018-07-24T05:46:57.816Z,170
2018-07-24T05:48:07.889Z,175
2018-07-24T05:49:17.953Z,180
2018-07-24T05:50:28.022Z,185
2018-07-24T05:51:37.849Z,185
2018-07-24T05:52:47.963Z,190
2018-07-24T05:53:57.777Z,190
2018-07-24T05:55:08.068Z,195
2018-07-24T05:56:18.228Z,195
2018-07-24T05:57:28.309Z,195
2018-07-24T05:58:38.442Z,200
2018-07-24T05:59:47.985Z,200
2018-07-24T06:00:57.786Z,195
2018-07-24T06:02:07.875Z,195
2018-07-24T06:03:17.686Z,200
2018-07-24T06:04:27.838Z,200
2018-07-24T06:05:37.913Z,210
2018-07-24T06:06:47.990Z,210
2018-07-24T06:07:58.060Z,215
2018-07-24T06:09:08.139Z,220
2018-07-24T06:10:18.287Z,220
2018-07-24T06:11:28.363Z,225
2018-07-24T06:12:38.437Z,225
2018-07-24T06:13:48.516Z,215
2018-07-24T06:14:58.310Z,215
2018-07-24T06:16:08.459Z,205
2018-07-24T06:17:18.559Z,205
2018-07-24T06:18:28.645Z,195
2018-07-24T06:19:38.430Z,185
2018-07-24T06:20:48.507Z,180
2018-07-24T06:21:58.326Z,175
2018-07-24T06:23:08.140Z,175
2018-07-24T06:24:18.237Z,170
2018-07-24T06:25:28.309Z,165
2018-07-24T06:26:38.386Z,165
2018-07-24T06:27:48.507Z,165
2018-07-24T06:28:58.338Z,155
2018-07-24T06:30:08.418Z,150
2018-07-24T06:31:18.505Z,140
2018-07-24T06:32:28.313Z,145
2018-07-24T06:33:38.432Z,150
2018-07-24T06:34:47.954Z,150
2018-07-24T06:35:58.013Z,150
2018-07-24T06:37:08.094Z,155
2018-07-24T06:38:31.158Z,155
2018-07-24T06:39:41.386Z,150
2018-07-24T06:40:51.762Z,150
2018-07-24T06:42:01.901Z,155
2018-07-24T06:43:11.978Z,160
2018-07-24T06:44:22.429Z,165
2018-07-24T06:45:32.032Z,160
2018-07-24T06:46:41.835Z,160
2018-07-24T06:47:51.634Z,165
2018-07-24T06:49:01.720Z,170
2018-07-24T06:50:11.570Z,175
2018-07-24T06:51:22.162Z,190
2018-07-24T06:52:31.677Z,195
2018-07-24T06:53:41.467Z,200
2018-07-24T06:54:51.011Z,205
2018-07-24T06:56:00.863Z,205
2018-07-24T06:57:10.720Z,205
2018-07-24T06:58:20.535Z,210
2018-07-24T06:59:30.336Z,205
2018-07-24T07:00:40.136Z,205
2018-07-24T07:01:49.733Z,205
2018-07-24T07:02:59.809Z,200
2018-07-24T07:04:09.349Z,195
2018-07-24T07:05:19.446Z,195
2018-07-24T07:06:29.516Z,195
2018-07-24T07:07:39.574Z,190
2018-07-24T07:08:49.428Z,185
2018-07-24T07:09:59.241Z,180
2018-07-24T07:11:09.056Z,175
2018-07-24T07:12:18.869Z,170
2018-07-24T07:13:29.417Z,175
2018-07-24T07:14:39.546Z,175
2018-07-24T07:15:48.817Z,180
2018-07-24T07:16:58.918Z,185
2018-07-24T07:18:08.991Z,190
2018-07-24T07:19:19.103Z,190
2018-07-24T07:20:29.027Z,190
2018-07-24T07:21:38.844Z,195
2018-07-24T07:22:48.367Z,195
2018-07-24T07:23:58.464Z,195
2018-07-24T07:25:08.596Z,195
2018-07-24T07:26:18.751Z,200
2018-07-24T07:27:28.471Z,200
2018-07-24T07:28:38.545Z,205
2018-07-24T07:29:48.351Z,205
2018-07-24T07:30:58.207Z,210
2018-07-24T07:32:08.352Z,210
2018-07-24T07:33:18.153Z,210
2018-07-24T07:34:28.242Z,210
2018-07-24T07:35:38.328Z,210
2018-07-24T07:36:48.452Z,210
2018-07-24T07:37:58.517Z,210
2018-07-24T07:39:08.362Z,205
2018-07-24T07:40:18.168Z,200
2018-07-24T07:41:27.962Z,200
2018-07-24T07:42:38.094Z,195
2018-07-24T07:43:47.921Z,195
2018-07-24T07:44:58.000Z,190
2018-07-24T07:46:08.093Z,185
2018-07-24T07:47:18.159Z,190
2018-07-24T07:48:28.005Z,195
2018-07-24T07:49:37.532Z,190
2018-07-24T07:50:47.593Z,195
2018-07-24T07:51:57.390Z,190
2018-07-24T07:53:06.654Z,195
2018-07-24T07:54:16.508Z,195
2018-07-24T07:55:26.310Z,195
2018-07-24T07:56:36.398Z,190
2018-07-24T07:57:46.471Z,190
2018-07-24T07:58:56.484Z,190
2018-07-24T08:00:06.094Z,185
2018-07-24T08:01:15.880Z,185
2018-07-24T08:02:25.721Z,195
2018-07-24T08:03:35.848Z,190
2018-07-24T08:04:45.914Z,195
2018-07-24T08:05:55.763Z,190
2018-07-24T08:07:05.590Z,195
2018-07-24T08:08:15.390Z,195
2018-07-24T08:09:25.479Z,195
2018-07-24T08:10:35.008Z,195
2018-07-24T08:11:45.128Z,195
2018-07-24T08:12:55.200Z,195
2018-07-24T08:14:05.457Z,190
2018-07-24T08:15:15.273Z,190
2018-07-24T08:16:25.354Z,195
2018-07-24T08:17:34.943Z,195
2018-07-24T08:18:44.746Z,195
2018-07-24T08:19:54.537Z,195
2018-07-24T08:21:04.636Z,195
2018-07-24T08:22:14.810Z,195
2018-07-24T08:23:24.940Z,195
2018-07-24T08:24:35.021Z,195
2018-07-24T08:25:44.817Z,195
2018-07-24T08:26:54.619Z,195
2018-07-24T08:28:05.114Z,195
2018-07-24T08:29:15.251Z,195
2018-07-24T08:30:25.052Z,195
2018-07-24T08:31:35.142Z,200
2018-07-24T08:32:45.204Z,200
2018-07-24T08:33:55.280Z,200
2018-07-24T08:35:04.850Z,200
2018-07-24T08:36:14.901Z,200
2018-07-24T08:37:24.711Z,200
2018-07-24T08:38:34.532Z,200
2018-07-24T08:39:44.345Z,200
2018-07-24T08:40:54.189Z,205
2018-07-24T08:42:03.994Z,205
2018-07-24T08:43:13.798Z,205
2018-07-24T08:44:23.322Z,205
2018-07-24T08:45:32.861Z,205
2018-07-24T08:46:42.721Z,205
2018-07-24T08:47:52.784Z,205
2018-07-24T08:49:02.586Z,205
2018-07-24T08:50:12.374Z,210
2018-07-24T08:51:22.177Z,210
2018-07-24T08:52:32.757Z,210
2018-07-24T08:53:43.960Z,210
2018-07-24T08:54:56.602Z,210
2018-07-24T08:56:06.178Z,210
2018-07-24T08:57:15.986Z,210
2018-07-24T08:58:25.310Z,215
2018-07-24T08:59:35.119Z,215
2018-07-24T09:00:44.994Z,215
2018-07-24T09:01:55.074Z,215
2018-07-24T09:03:05.426Z,220
2018-07-24T09:04:15.277Z,220
2018-07-24T09:05:25.423Z,220
2018-07-24T09:06:35.512Z,225
2018-07-24T09:07:45.566Z,225
2018-07-24T09:08:55.643Z,225
2018-07-24T09:10:05.272Z,230
2018-07-24T09:11:15.357Z,230
2018-07-24T09:12:25.177Z,240
2018-07-24T09:13:35.244Z,235
2018-07-24T09:14:45.332Z,245
2018-07-24T09:15:54.952Z,260
2018-07-24T09:17:04.491Z,235
2018-07-24T09:18:14.308Z,205
2018-07-24T09:19:24.105Z,210
2018-07-24T09:20:34.192Z,235
2018-07-24T09:21:44.335Z,235
2018-07-24T09:22:54.142Z,235
2018-07-24T09:24:03.984Z,235
2018-07-24T09:25:14.067Z,235
2018-07-24T09:26:24.163Z,235
2018-07-24T09:27:33.752Z,235
2018-07-24T09:28:43.831Z,240
2018-07-24T09:29:53.641Z,240
2018-07-24T09:31:03.169Z,245
2018-07-24T09:32:13.287Z,245
2018-07-24T09:33:23.159Z,250
2018-07-24T09:34:33.239Z,255
2018-07-24T09:35:43.318Z,265
2018-07-24T09:36:53.408Z,270
2018-07-24T09:38:03.216Z,280
2018-07-24T09:39:13.330Z,290
2018-07-24T09:40:23.216Z,295
2018-07-24T09:41:33.303Z,295
2018-07-24T09:42:43.383Z,300
2018-07-24T09:43:53.465Z,305
2018-07-24T09:45:03.380Z,310
2018-07-24T09:46:12.919Z,310
2018-07-24T09:47:22.449Z,315
2018-07-24T09:48:32.524Z,315
2018-07-24T09:49:42.326Z,305
2018-07-24T09:50:51.918Z,300
2018-07-24T09:52:01.728Z,305
2018-07-24T09:53:10.991Z,310
2018-07-24T09:54:21.076Z,325
2018-07-24T09:55:30.867Z,335
2018-07-24T09:56:40.877Z,335
2018-07-24T09:57:50.673Z,320
2018-07-24T09:59:00.756Z,315
2018-07-24T10:00:10.851Z,315
2018-07-24T10:01:20.670Z,315
2018-07-24T10:02:30.535Z,245
2018-07-24T10:03:40.617Z,240
2018-07-24T10:04:50.675Z,275
2018-07-24T10:06:00.744Z,300
2018-07-24T10:07:10.551Z,295
2018-07-24T10:08:20.698Z,295
2018-07-24T10:09:30.501Z,285
2018-07-24T10:10:40.586Z,320
2018-07-24T10:11:50.648Z,285
2018-07-24T10:13:00.698Z,255
2018-07-24T10:14:10.914Z,230
2018-07-24T10:15:20.745Z,270
2018-07-24T10:16:30.781Z,305
2018-07-24T10:17:40.363Z,315
2018-07-24T10:18:50.321Z,315
2018-07-24T10:20:00.462Z,335
2018-07-24T10:21:10.557Z,350
2018-07-24T10:22:20.586Z,360
2018-07-24T10:23:30.755Z,380
2018-07-24T10:24:40.445Z,430
2018-07-24T10:25:50.026Z,485
2018-07-24T10:26:59.852Z,505
2018-07-24T10:28:09.948Z,515
2018-07-24T10:29:19.756Z,475
2018-07-24T10:30:29.548Z,500
2018-07-24T10:31:39.744Z,455
2018-07-24T10:32:49.827Z,430
2018-07-24T10:33:59.932Z,380
2018-07-24T10:35:09.470Z,430
2018-07-24T10:36:19.287Z,490
2018-07-24T10:37:29.421Z,500
2018-07-24T10:38:39.227Z,475
2018-07-24T10:39:49.318Z,415
2018-07-24T10:40:59.399Z,335
2018-07-24T10:42:08.947Z,240
2018-07-24T10:43:19.386Z,225
2018-07-24T10:44:28.923Z,245
2018-07-24T10:45:38.725Z,285
2018-07-24T10:46:48.263Z,290
2018-07-24T10:47:58.065Z,295
2018-07-24T10:49:08.196Z,305
2018-07-24T10:50:18.288Z,345
2018-07-24T10:51:28.374Z,365
2018-07-24T10:52:38.227Z,375
2018-07-24T10:53:48.052Z,385
2018-07-24T10:54:58.181Z,315
2018-07-24T10:56:08.311Z,320
2018-07-24T10:57:17.852Z,330
2018-07-24T10:58:27.977Z,345
2018-07-24T10:59:37.505Z,360
2018-07-24T11:00:47.095Z,440
2018-07-24T11:01:56.906Z,450
2018-07-24T11:03:06.729Z,445
2018-07-24T11:04:16.537Z,440
2018-07-24T11:05:27.136Z,455
2018-07-24T11:06:37.276Z,480
2018-07-24T11:07:46.271Z,505
2018-07-24T11:08:56.367Z,535
2018-07-24T11:10:05.902Z,560
2018-07-24T11:11:16.097Z,605
2018-07-24T11:12:26.242Z,640
2018-07-24T11:13:36.319Z,690
2018-07-24T11:14:46.408Z,735
2018-07-24T11:15:56.222Z,755
2018-07-24T11:17:05.758Z,770
2018-07-24T11:18:15.894Z,780
2018-07-24T11:19:25.448Z,775
2018-07-24T11:20:35.300Z,775
2018-07-24T11:21:45.425Z,770
2018-07-24T11:22:56.704Z,745
2018-07-24T11:24:06.712Z,650
2018-07-24T11:25:16.229Z,630
2018-07-24T11:26:26.044Z,635
2018-07-24T11:27:36.359Z,640
2018-07-24T11:28:46.444Z,675
2018-07-24T11:29:56.316Z,800
2018-07-24T11:31:06.407Z,885
2018-07-24T11:32:16.495Z,875
2018-07-24T11:33:26.710Z,895
2018-07-24T11:34:36.826Z,965
2018-07-24T11:35:47.916Z,940
2018-07-24T11:36:58.124Z,1100
2018-07-24T11:38:07.936Z,2415
2018-07-24T11:39:17.750Z,1400
2018-07-24T11:40:27.562Z,1130
2018-07-24T11:41:37.439Z,825
2018-07-24T11:42:47.253Z,945
2018-07-24T11:43:57.446Z,955
2018-07-24T11:45:07.593Z,1435
2018-07-24T11:46:17.677Z,1105
2018-07-24T11:47:27.825Z,1050
2018-07-24T11:48:37.629Z,940
2018-07-24T11:49:47.180Z,985
2018-07-24T11:50:56.985Z,965
2018-07-24T11:52:07.027Z,920
2018-07-24T11:53:16.625Z,900
2018-07-24T11:54:26.426Z,915
2018-07-24T11:55:36.576Z,1010
2018-07-24T11:56:46.703Z,990
2018-07-24T11:57:56.905Z,1000
2018-07-24T11:59:06.774Z,1095
2018-07-24T12:00:16.588Z,1350
2018-07-24T12:01:26.677Z,1545
2018-07-24T12:02:36.757Z,1360
2018-07-24T12:03:47.117Z,1250
2018-07-24T12:04:57.233Z,1435
2018-07-24T12:06:07.350Z,1895
2018-07-24T12:07:17.163Z,2235
2018-07-24T12:08:26.954Z,2375
2018-07-24T12:09:37.057Z,2325
2018-07-24T12:10:46.645Z,1860
2018-07-24T12:11:56.794Z,1915
2018-07-24T12:13:06.603Z,3735
2018-07-24T12:14:16.685Z,2495
2018-07-24T12:15:26.243Z,1495
2018-07-24T12:16:36.398Z,1490
2018-07-24T12:17:46.250Z,2275
2018-07-24T12:18:56.080Z,2095
2018-07-24T12:20:05.883Z,2400
2018-07-24T12:21:15.444Z,3315
2018-07-24T12:22:25.036Z,1495
2018-07-24T12:23:35.105Z,1280
2018-07-24T12:24:44.927Z,2625
2018-07-24T12:25:54.753Z,3485
2018-07-24T12:27:05.051Z,1500
2018-07-24T12:28:15.194Z,2455
2018-07-24T12:29:25.012Z,2845
2018-07-24T12:30:35.092Z,920
2018-07-24T12:31:45.182Z,990
2018-07-24T12:32:54.735Z,1400
2018-07-24T12:34:04.876Z,3050
2018-07-24T12:35:14.964Z,3095
2018-07-24T12:36:25.200Z,2670
2018-07-24T12:37:35.039Z,780
2018-07-24T12:38:45.139Z,795
2018-07-24T12:39:55.017Z,2125
2018-07-24T12:41:04.576Z,3005
2018-07-24T12:42:14.790Z,1020
2018-07-24T12:43:24.871Z,725
2018-07-24T12:44:34.414Z,2905
2018-07-24T12:45:44.555Z,2220
2018-07-24T12:46:54.638Z,695
2018-07-24T12:48:04.724Z,850
2018-07-24T12:49:14.824Z,1885
2018-07-24T12:50:24.669Z,1215
2018-07-24T12:51:34.518Z,1895
2018-07-24T12:52:44.781Z,1095
2018-07-24T12:53:54.867Z,935
2018-07-24T12:55:04.669Z,1015
2018-07-24T12:56:14.486Z,1220
2018-07-24T12:57:24.621Z,1175
2018-07-24T12:58:34.443Z,1165
2018-07-24T12:59:44.549Z,1005
2018-07-24T13:00:54.363Z,1415
2018-07-24T13:02:03.904Z,1930
2018-07-24T13:03:14.041Z,1320
2018-07-24T13:04:24.280Z,835
2018-07-24T13:05:33.843Z,840
2018-07-24T13:06:43.945Z,785
2018-07-24T13:07:54.033Z,760
2018-07-24T13:09:04.158Z,1090
2018-07-24T13:10:15.034Z,865
2018-07-24T13:11:24.836Z,1150
2018-07-24T13:12:34.640Z,2860
2018-07-24T13:13:44.191Z,2815
2018-07-24T13:14:54.314Z,1835
2018-07-24T13:16:03.588Z,2410
2018-07-24T13:17:13.404Z,2625
2018-07-24T13:18:23.482Z,2855
2018-07-24T13:19:33.430Z,3085
2018-07-24T13:20:43.306Z,3455
2018-07-24T13:21:53.125Z,3300
2018-07-24T13:23:02.955Z,2510
2018-07-24T13:24:13.047Z,1205
2018-07-24T13:25:23.125Z,2555
2018-07-24T13:26:33.022Z,1060
2018-07-24T13:27:42.582Z,845
2018-07-24T13:28:52.677Z,720
2018-07-24T13:30:02.767Z,705
2018-07-24T13:31:12.850Z,680
2018-07-24T13:32:23.169Z,650
2018-07-24T13:33:32.996Z,615
2018-07-24T13:34:42.542Z,580
2018-07-24T13:35:52.089Z,560
2018-07-24T13:37:02.164Z,550
2018-07-24T13:38:11.758Z,545
2018-07-24T13:39:21.578Z,535
2018-07-24T13:40:31.663Z,530
2018-07-24T13:41:41.742Z,515
2018-07-24T13:42:51.795Z,510
2018-07-24T13:44:01.902Z,495
2018-07-24T13:45:11.803Z,485
2018-07-24T13:46:21.606Z,475
2018-07-24T13:47:31.411Z,470
2018-07-24T13:48:40.700Z,480
2018-07-24T13:49:50.830Z,495
2018-07-24T13:51:00.108Z,505
2018-07-24T13:52:10.324Z,480
2018-07-24T13:53:20.184Z,470
2018-07-24T13:54:29.743Z,465
2018-07-24T13:55:39.879Z,465
2018-07-24T13:56:49.407Z,470
2018-07-24T13:57:58.948Z,460
2018-07-24T13:59:09.022Z,450
2018-07-24T14:00:18.303Z,450
2018-07-24T14:01:28.159Z,450
2018-07-24T14:02:38.246Z,460
2018-07-24T14:03:47.775Z,455
2018-07-24T14:04:57.850Z,455
2018-07-24T14:06:07.125Z,430
2018-07-24T14:07:16.986Z,395
2018-07-24T14:08:27.183Z,395
2018-07-24T14:09:36.943Z,395
2018-07-24T14:10:47.028Z,400
2018-07-24T14:11:56.841Z,385
2018-07-24T14:13:06.707Z,360
2018-07-24T14:14:16.395Z,360
2018-07-24T14:15:25.779Z,365
2018-07-24T14:16:35.861Z,370
2018-07-24T14:17:45.950Z,350
2018-07-24T14:18:56.099Z,350
2018-07-24T14:20:05.908Z,350
2018-07-24T14:21:15.994Z,340
2018-07-24T14:22:25.790Z,340
2018-07-24T14:23:35.593Z,355
2018-07-24T14:24:45.185Z,370
2018-07-24T14:25:55.253Z,385
2018-07-24T14:27:05.332Z,390
2018-07-24T14:28:14.323Z,365
2018-07-24T14:29:24.123Z,340
2018-07-24T14:30:34.258Z,310
2018-07-24T14:31:44.061Z,290
2018-07-24T14:32:53.897Z,275
2018-07-24T14:34:03.986Z,270
2018-07-24T14:35:14.095Z,275
2018-07-24T14:36:24.212Z,265
2018-07-24T14:37:34.284Z,255
2018-07-24T14:38:44.084Z,250
2018-07-24T14:39:54.151Z,250
2018-07-24T14:41:04.290Z,250
2018-07-24T14:42:13.872Z,255
2018-07-24T14:43:23.424Z,260
2018-07-24T14:44:33.231Z,260
2018-07-24T14:45:43.319Z,265
2018-07-24T14:46:52.871Z,275
2018-07-24T14:48:02.716Z,280
2018-07-24T14:49:12.248Z,290
2018-07-24T14:50:22.057Z,285
2018-07-24T14:51:32.122Z,285
2018-07-24T14:52:42.022Z,290
2018-07-24T14:53:51.851Z,290
2018-07-24T14:55:01.914Z,285
2018-07-24T14:56:11.459Z,285
2018-07-24T14:57:21.519Z,280
2018-07-24T14:58:31.610Z,270
2018-07-24T14:59:41.470Z,265
2018-07-24T15:00:51.269Z,270
2018-07-24T15:02:01.331Z,270
2018-07-24T15:03:10.600Z,280
2018-07-24T15:04:20.677Z,305
2018-07-24T15:05:30.813Z,345
2018-07-24T15:06:41.348Z,355
2018-07-24T15:07:51.413Z,355
2018-07-24T15:09:01.473Z,400
2018-07-24T15:10:11.016Z,325
2018-07-24T15:11:21.161Z,345
2018-07-24T15:12:30.716Z,425
2018-07-24T15:13:40.792Z,505
2018-07-24T15:14:50.590Z,555
2018-07-24T15:16:00.398Z,1215
2018-07-24T15:17:10.350Z,2745
2018-07-24T15:18:20.462Z,3070
2018-07-24T15:19:30.593Z,2940
2018-07-24T15:20:40.412Z,3105
2018-07-24T15:21:50.240Z,3170
2018-07-24T15:23:00.364Z,3220
2018-07-24T15:24:09.908Z,3220
2018-07-24T15:25:19.722Z,3330
2018-07-24T15:26:29.798Z,2220
2018-07-24T15:27:39.594Z,2735
2018-07-24T15:28:50.335Z,2675
2018-07-24T15:30:00.434Z,3120
2018-07-24T15:31:10.546Z,3095
2018-07-24T15:32:20.633Z,3240
2018-07-24T15:33:30.712Z,3355
2018-07-24T15:34:41.749Z,3210
2018-07-24T15:35:51.570Z,3000
2018-07-24T15:37:01.844Z,2990
2018-07-24T15:38:11.739Z,2985
2018-07-24T15:39:21.563Z,2900
2018-07-24T15:40:31.430Z,2760
2018-07-24T15:41:40.964Z,2655
2018-07-24T15:42:50.784Z,2790
2018-07-24T15:44:00.866Z,2675
2018-07-24T15:45:10.407Z,1640
2018-07-24T15:46:20.260Z,2690
2018-07-24T15:47:29.789Z,2860
2018-07-24T15:48:39.613Z,2810
2018-07-24T15:49:49.430Z,2875
2018-07-24T15:50:59.246Z,2830
2018-07-24T15:52:08.981Z,2735
2018-07-24T15:53:18.543Z,2715
2018-07-24T15:54:28.071Z,2710
2018-07-24T15:55:37.892Z,2850
2018-07-24T15:56:47.683Z,2450
2018-07-24T15:57:58.411Z,2120
2018-07-24T15:59:08.516Z,2360
2018-07-24T16:00:18.347Z,385
2018-07-24T16:01:28.176Z,385
2018-07-24T16:02:37.854Z,365
2018-07-24T16:03:47.786Z,880
2018-07-24T16:04:57.595Z,500
2018-07-24T16:06:07.258Z,650
2018-07-24T16:07:17.094Z,775
2018-07-24T16:08:27.173Z,720
2018-07-24T16:09:37.034Z,835
2018-07-24T16:10:47.117Z,825
2018-07-24T16:11:56.643Z,810
2018-07-24T16:13:06.470Z,455
2018-07-24T16:14:16.571Z,390